Emil Jansson

Olheiro - Atvidaberg
5 Dez 2027
Domingo
Processo

Personalidade

Adaptabilidade (11) Ambição (1) Controvérsia (6) Lealdade (1) Pressão (2) Profissionalismo (18) Espírito Esportivo (7) Temperamento (2)

Perfil

Estilo de Treinamento Democrático
Licença Continental A
Determinação 9
Gestão de Pessoas 6
Motivação 8
Disciplina 3
Satisfação no Trabalho
100%
Fadiga
0%
Função Olheiro
Salário 21.1K p/s
Contrato 14.03.2030

Desempenho

Comportamento Bom
Eficácia do Treinamento
33%
Desenvolvimento do Jogador
15%
Prevenção de Lesões
20%
Implementação Tática
30%

Eventos Recentes

Participou de uma reunião de recrutamento agora
Participou de uma reunião de recrutamento 7d atrás
Recomendou um alvo de transferência 7d atrás
Recomendou um alvo de transferência 7d atrás
Participou de uma reunião de recrutamento 14d atrás
Recomendou um alvo de transferência 14d atrás
Recomendou um alvo de transferência 14d atrás
Recomendou um alvo de transferência 21d atrás

Monitorando agora

107
Jogador Clube Status Habilidade Confiança Observado Última observação Último voto
Sourou Koné Hammarby Relatório pronto 83 / 89 72% 1 26.07.2027 -
Zakarias Råvik Kalmar FF Relatório pronto 96 / 100 72% 1 22.07.2027 -
Ladji Camara AIK Ativo 88 / 102 69% 1 15.03.2027 Aprovar
Eric Larsson Gefle Ativo 97 / 83 69% 1 02.02.2027 Aprovar
Samuel Tetteh Ashanti Gold Ativo 110 / 86 40% 4 28.01.2027 -
Clinton N'jie Cotonsport Garoua Ativo 117 / 103 40% 1 28.01.2027 -
Robert Murić Floriana Ativo 110 / 114 40% 1 28.01.2027 -
Emmanuel Boateng Hapoel Tel Aviv Ativo 122 / 114 40% 2 27.01.2027 -
Oleksii Hutsuliak Polissia Ativo 118 / 136 40% 1 27.01.2027 -
Yousef Salech Cardiff City Ativo 123 / 118 40% 3 25.01.2027 -
Ibrahim Nurudeen Medeama Ativo 91 / 90 40% 1 25.01.2027 -
Rumarn Burrell Queens Park Rangers Ativo 130 / 138 40% 3 24.01.2027 -
Camillo Tavernelli Arezzo Ativo 116 / 112 40% 1 24.01.2027 -
Juergen Elitím Blackpool Ativo 111 / 123 40% 1 24.01.2027 -
Filip Kubala Banik Ostrava Ativo 120 / 128 40% 2 22.01.2027 -
Ronan Hale Gillingham Ativo 110 / 125 40% 2 22.01.2027 -
Karim El Berkaoui ES Mostaganem Ativo 116 / 108 40% 1 22.01.2027 -
Patrick Addo Great Olympics Ativo 119 / 116 40% 1 22.01.2027 -
Mohammed Yahaya Great Olympics Ativo 80 / 94 40% 1 22.01.2027 -
John Okoye Ebuka Ittihad Ativo 131 / 107 40% 2 19.01.2027 -
Sunusi Ibrahim Cotonsport Garoua Ativo 109 / 95 40% 4 18.01.2027 -
Kelly Saravanan Salford City Ativo 102 / 115 40% 1 18.01.2027 -
Bradley Fink Wycombe Wanderers Ativo 98 / 121 40% 1 17.01.2027 -
Christian Saydee Wigan Athletic Ativo 107 / 111 40% 1 17.01.2027 -
Marcus Forss Bristol Rovers Ativo 118 / 106 40% 2 16.01.2027 -
Iwan Morgan Grimsby Town Ativo 118 / 128 40% 1 16.01.2027 -
Frederik Ihler IF Elfsborg Ativo 119 / 119 40% 2 12.01.2027 -
Joel Fameyeh Puskas Akademia Ativo 114 / 115 40% 2 10.01.2027 -
Egas Cacintura Akhmat Grozny Ativo 128 / 122 40% 1 10.01.2027 -
Sheyi Ojo Plymouth Argyle Ativo 116 / 107 40% 1 10.01.2027 -
Lechi Sadulaev Akhmat Grozny Ativo 134 / 125 40% 1 10.01.2027 -
Muharrem Jashari LNZ Ativo 115 / 101 40% 3 09.01.2027 -
Mohamed Brahimi CSKA Sofia Ativo 120 / 99 40% 1 09.01.2027 -
Alexander Jeremejeff Persija Ativo 113 / 118 40% 2 05.01.2027 -
Ousmane Diawara Altach Ativo 104 / 94 40% 2 05.01.2027 -
Yeangel Montero Naxxar Lions Ativo 101 / 108 40% 1 05.01.2027 -
Jaze Kabia Grimsby Town Ativo 104 / 104 40% 1 04.01.2027 -
Fabrizio Cavegn Bristol Rovers Ativo 121 / 106 40% 1 04.01.2027 -
Fraser Murray Wigan Athletic Ativo 121 / 127 40% 3 02.01.2027 -
Ammar Ramadan DAC Dunajska Streda Ativo 133 / 130 40% 2 31.12.2026 -
Oto John Arab Contractors Ativo 104 / 93 40% 2 29.12.2026 -
Ezequiel Ávila Hapoel Tel Aviv Ativo 126 / 135 40% 1 28.12.2026 -
Michael Baidoo Plymouth Argyle Ativo 125 / 128 40% 1 28.12.2026 -
Pietro Iemmello Catanzaro Ativo 126 / 128 40% 1 28.12.2026 -
Besard Šabović Austin FC Ativo 125 / 112 40% 2 27.12.2026 -
Lukáš Juliš MSK Zilina Ativo 116 / 100 40% 1 27.12.2026 -
José Gayà Valencia Ativo 133 / 144 40% 1 26.12.2026 -
Kayden Jackson Bradford City Ativo 113 / 115 40% 1 26.12.2026 -
Kyle Joseph Middlesbrough Ativo 105 / 131 40% 2 23.12.2026 -
Frédéric Maciel CSKA 1948 Ativo 126 / 124 40% 1 23.12.2026 -
Matěj Koubek MFK Ruzomberok Ativo 109 / 106 40% 1 22.12.2026 -
Nick Powell Newport County Ativo 111 / 106 40% 1 22.12.2026 -
Atsuki Ito Bolton Wanderers Ativo 125 / 113 40% 2 21.12.2026 -
Teddy Teuma Sliema Wanderers Ativo 126 / 130 40% 1 21.12.2026 -
Andri Guðjohnsen Blackburn Rovers Ativo 124 / 121 40% 1 18.12.2026 -
Svante Ingelsson Sheffield Wednesday Ativo 115 / 100 40% 1 17.12.2026 -
Mateo Kovačić Manchester City Ativo 159 / 146 40% 1 17.12.2026 -
Filip Stojanovic NK Domzale Ativo 118 / 118 40% 2 15.12.2026 -
Aaron Drinan Swindon Town Ativo 93 / 92 40% 1 15.12.2026 -
Aaron Collins Milton Keynes Dons Ativo 118 / 107 40% 1 15.12.2026 -
Federico Di Francesco Catanzaro Ativo 117 / 128 40% 1 15.12.2026 -
Martin Sekulić Ural Ativo 107 / 122 40% 2 14.12.2026 -
Daniel Karlsbakk Sarpsborg 08 Ativo 125 / 128 40% 2 14.12.2026 -
Xeber Alkain Karpaty Ativo 122 / 119 40% 1 11.12.2026 -
Evander NK Osijek Ativo 126 / 137 40% 1 10.12.2026 -
Niklas Söderberg Ilves Ativo 90 / 87 40% 1 10.12.2026 -
Victor Torp Coventry City Ativo 140 / 133 40% 1 10.12.2026 -
Manu Nieto Andorra Ativo 128 / 120 40% 1 09.12.2026 -
Omar Faraj Halmstad Ativo 122 / 109 40% 2 06.12.2026 -
Petr Ševčík Zbrojovka Brno Ativo 118 / 118 40% 1 06.12.2026 -
Jeppe Okkels Djurgarden Ativo 122 / 123 40% 1 06.12.2026 -
Arbër Zeneli IF Elfsborg Ativo 119 / 103 40% 1 04.12.2026 -
Vitalii Dakhnovskyi Bukovyna Ativo 104 / 107 40% 1 04.12.2026 -
Mamadou Thiam FCSB Ativo 119 / 108 40% 1 04.12.2026 -
Dario Vizinger NK Maribor Ativo 113 / 107 40% 1 30.11.2026 -
Adrien Thibaut Imotski Ativo 89 / 97 40% 1 30.11.2026 -
Rami Kaib Halmstad Ativo 113 / 101 40% 1 29.11.2026 -
Matty Stevens AFC Wimbledon Ativo 116 / 96 40% 2 26.11.2026 -
Rafael Navarro St. Louis CITY SC Ativo 132 / 132 40% 1 26.11.2026 -
Emil Tot Wikström IBV Ativo 87 / 81 40% 1 25.11.2026 -
Liridon Kalludra Ativo 102 / 88 40% 1 24.11.2026 -
Allan Saint-Maximin Charlotte Football Club Ativo 135 / 130 40% 1 24.11.2026 -
Kristijan Lovrić Rudes Ativo 118 / 111 40% 1 24.11.2026 -
Erik Botheim Viking Ativo 128 / 120 40% 1 23.11.2026 -
Cheikh Sabaly Vancouver Whitecaps Ativo 119 / 112 40% 1 23.11.2026 -
Nikolaj Möller Sandefjord Ativo 100 / 94 40% 1 22.11.2026 -
Kristian Eriksen Molde Ativo 123 / 116 40% 1 22.11.2026 -
Kelvin Yeboah Minnesota United FC Ativo 138 / 133 40% 1 22.11.2026 -
Dino Beširović AIK Ativo 121 / 107 40% 1 19.11.2026 -
Eirik Wichne Sarpsborg 08 Ativo 105 / 113 40% 1 19.11.2026 -
Adrian Svanbäck BK Hacken Ativo 109 / 128 40% 1 18.11.2026 -
Kosta Petrovic Angusht Ativo 71 / 58 40% 1 18.11.2026 -
David Barbona Defensa y Justicia Ativo 119 / 108 40% 2 17.11.2026 -
Matej Trusa DAC Dunajska Streda Ativo 117 / 113 40% 1 17.11.2026 -
Kévin Denkey FC Cincinnati Ativo 123 / 133 40% 2 16.11.2026 -
Taylor Silverholt IF Elfsborg Ativo 104 / 99 40% 1 16.11.2026 -
Armstrong Oko-Flex Levski Ativo 122 / 123 40% 1 16.11.2026 -
Stefano Vecchia BK Hacken Ativo 105 / 122 40% 1 15.11.2026 -
Róbert Polievka MTK Budapest Ativo 111 / 110 40% 1 14.11.2026 -
Andreas Helmersen Bodo/Glimt Ativo 122 / 117 40% 1 14.11.2026 -
Heung-Min Son Los Angeles Football Club Ativo 158 / 162 40% 1 10.11.2026 -
Paulo Dybala AS Roma Ativo 153 / 136 40% 1 10.11.2026 -
Jack Harrison New England Revolution Ativo 125 / 124 40% 1 08.11.2026 -
Leonardo Campana New England Revolution Ativo 133 / 136 40% 1 04.11.2026 -
Ramon Pascal Lundqvist IFK Goteborg Ativo 120 / 118 40% 1 03.11.2026 -
Simon Gustafson Korona Ativo 117 / 131 40% 1 03.11.2026 -
David Kruse IFK Goteborg Ativo 108 / 128 40% 1 02.08.2026 -